Wetterdaten: Woche 16.03.20 - 22.03.20 (KW12)
Datum Zeit Temp. Aussen Temp. o. S. Temp +5cm Feuchte Auss Luftdruck Regen Sonnenschein Regendauer Solar Windben Empfang
16.03.2020 00:00 8,3 C 7,3 C 6,5 C 80 % 1013,5 hPa 0,0 l/m 0,00 h 0,00 h 0 W/m 0,0 km/h (0 Bft) 97,00 %
16.03.2020 01:00 7,6 C 6,5 C 5,6 C 82 % 1013,6 hPa 0,0 l/m 0,00 h 0,00 h 0 W/m 4,1 km/h (1 Bft) 96,22 %
16.03.2020 02:00 6,9 C 6,0 C 5,2 C 83 % 1013,7 hPa 0,0 l/m 0,00 h 0,00 h 0 W/m 4,3 km/h (1 Bft) 97,83 %
16.03.2020 03:00 6,4 C 5,4 C 4,5 C 84 % 1013,8 hPa 0,0 l/m 0,00 h 0,00 h 0 W/m 0,4 km/h (0 Bft) 94,71 %
16.03.2020 04:00 5,7 C 4,2 C 3,1 C 85 % 1014,5 hPa 0,0 l/m 0,00 h 0,00 h 0 W/m 0,0 km/h (0 Bft) 98,22 %
16.03.2020 05:00 5,2 C 4,3 C 3,6 C 87 % 1015,3 hPa 0,0 l/m 0,00 h 0,00 h 0 W/m 2,0 km/h (1 Bft) 96,62 %
16.03.2020 06:00 4,6 C 3,3 C 1,8 C 87 % 1016,2 hPa 0,0 l/m 0,00 h 0,00 h 6 W/m 0,1 km/h (0 Bft) 97,75 %
16.03.2020 07:00 4,7 C 4,9 C 3,9 C 89 % 1017,0 hPa 0,0 l/m 0,00 h 0,00 h 24 W/m 0,0 km/h (0 Bft) 95,63 %
16.03.2020 08:00 6,1 C 7,2 C 6,3 C 88 % 1018,1 hPa 0,0 l/m 0,07 h 0,00 h 91 W/m 0,3 km/h (0 Bft) 97,09 %
16.03.2020 09:00 9,0 C 15,2 C 12,4 C 84 % 1018,9 hPa 0,0 l/m 0,93 h 0,00 h 361 W/m 0,0 km/h (0 Bft) 96,86 %
16.03.2020 10:00 12,9 C 19,1 C 11,5 C 75 % 1019,5 hPa 0,0 l/m 1,00 h 0,00 h 487 W/m 0,5 km/h (0 Bft) 99,35 %
16.03.2020 11:00 14,6 C 20,7 C 12,8 C 72 % 1019,9 hPa 0,0 l/m 1,00 h 0,00 h 559 W/m 1,9 km/h (1 Bft) 98,01 %
16.03.2020 12:00 16,3 C 22,3 C 16,8 C 68 % 1020,3 hPa 0,0 l/m 1,00 h 0,00 h 663 W/m 1,5 km/h (1 Bft) 98,64 %
16.03.2020 13:00 17,3 C 23,1 C 19,7 C 65 % 1020,2 hPa 0,0 l/m 1,00 h 0,00 h 678 W/m 1,6 km/h (1 Bft) 98,59 %
16.03.2020 14:00 17,9 C 21,2 C 17,0 C 63 % 1020,4 hPa 0,0 l/m 1,00 h 0,00 h 493 W/m 1,9 km/h (1 Bft) 96,88 %
16.03.2020 15:00 17,6 C 18,9 C 16,3 C 66 % 1020,9 hPa 0,0 l/m 0,53 h 0,00 h 267 W/m 6,5 km/h (2 Bft) 97,15 %
16.03.2020 16:00 15,6 C 16,7 C 15,2 C 76 % 1021,6 hPa 0,0 l/m 0,70 h 0,00 h 237 W/m 10,0 km/h (2 Bft) 97,79 %
16.03.2020 17:00 14,3 C 13,3 C 12,4 C 78 % 1022,0 hPa 0,0 l/m 0,00 h 0,00 h 54 W/m 0,5 km/h (0 Bft) 96,74 %
16.03.2020 18:00 13,0 C 11,2 C 10,3 C 80 % 1022,6 hPa 0,0 l/m 0,00 h 0,00 h 13 W/m 0,0 km/h (0 Bft) 97,34 %
16.03.2020 19:00 11,9 C 10,4 C 9,7 C 84 % 1023,5 hPa 0,0 l/m 0,00 h 0,00 h 0 W/m 0,4 km/h (0 Bft) 97,51 %
16.03.2020 20:00 11,2 C 10,0 C 9,3 C 85 % 1024,2 hPa 0,0 l/m 0,00 h 0,00 h 0 W/m 0,0 km/h (0 Bft) 97,72 %
16.03.2020 21:00 10,8 C 9,7 C 8,9 C 85 % 1024,8 hPa 0,0 l/m 0,00 h 0,00 h 0 W/m 0,0 km/h (0 Bft) 98,72 %
16.03.2020 22:00 10,4 C 9,2 C 8,1 C 85 % 1025,2 hPa 0,0 l/m 0,00 h 0,00 h 0 W/m 0,0 km/h (0 Bft) 95,02 %
16.03.2020 23:00 9,9 C 9,0 C 8,3 C 87 % 1025,7 hPa 0,0 l/m 0,00 h 0,00 h 0 W/m 0,0 km/h (0 Bft) 96,88 %
17.03.2020 00:00 9,7 C 8,9 C 8,3 C 88 % 1026,3 hPa 0,0 l/m 0,00 h 0,00 h 0 W/m 0,6 km/h (0 Bft) 98,88 %
17.03.2020 01:00 9,3 C 8,3 C 8,1 C 88 % 1026,9 hPa 0,0 l/m 0,00 h 0,00 h 0 W/m 0,9 km/h (0 Bft) 94,70 %
17.03.2020 02:00 9,0 C 7,9 C 7,4 C 88 % 1027,1 hPa 0,0 l/m 0,00 h 0,00 h 0 W/m 0,0 km/h (0 Bft) 98,01 %
17.03.2020 03:00 8,6 C 7,7 C 7,1 C 86 % 1027,2 hPa 0,0 l/m 0,00 h 0,00 h 0 W/m 0,1 km/h (0 Bft) 98,01 %
17.03.2020 04:00 7,9 C 6,2 C 5,7 C 86 % 1027,8 hPa 0,0 l/m 0,00 h 0,00 h 0 W/m 0,0 km/h (0 Bft) 97,53 %
17.03.2020 05:00 6,8 C 5,0 C 3,9 C 87 % 1028,4 hPa 0,0 l/m 0,00 h 0,00 h 0 W/m 0,0 km/h (0 Bft) 97,69 %
17.03.2020 06:00 5,7 C 4,2 C 2,9 C 89 % 1029,0 hPa 0,0 l/m 0,00 h 0,00 h 8 W/m 0,0 km/h (0 Bft) 95,77 %
17.03.2020 07:00 5,1 C 4,7 C 3,0 C 91 % 1029,6 hPa 0,0 l/m 0,00 h 0,00 h 28 W/m 0,0 km/h (0 Bft) 96,38 %
17.03.2020 08:00 6,0 C 7,4 C 6,0 C 94 % 1030,3 hPa 0,0 l/m 0,13 h 0,00 h 93 W/m 0,2 km/h (0 Bft) 99,00 %
17.03.2020 09:00 8,8 C 14,2 C 11,7 C 85 % 1030,8 hPa 0,0 l/m 1,00 h 0,00 h 387 W/m 0,6 km/h (0 Bft) 96,96 %
17.03.2020 10:00 11,8 C 16,2 C 10,6 C 72 % 1030,8 hPa 0,0 l/m 1,00 h 0,00 h 541 W/m 8,9 km/h (2 Bft) 95,96 %
17.03.2020 11:00 13,3 C 17,7 C 12,0 C 66 % 1030,9 hPa 0,0 l/m 1,00 h 0,00 h 646 W/m 6,4 km/h (2 Bft) 97,21 %
17.03.2020 12:00 14,4 C 18,8 C 14,9 C 60 % 1030,7 hPa 0,0 l/m 1,00 h 0,00 h 665 W/m 5,8 km/h (2 Bft) 94,34 %
17.03.2020 13:00 15,3 C 20,1 C 17,4 C 56 % 1030,3 hPa 0,0 l/m 1,00 h 0,00 h 650 W/m 3,4 km/h (1 Bft) 97,71 %
17.03.2020 14:00 15,9 C 19,6 C 14,7 C 51 % 1030,0 hPa 0,0 l/m 1,00 h 0,00 h 603 W/m 6,4 km/h (2 Bft) 97,66 %
17.03.2020 15:00 16,5 C 20,4 C 16,4 C 47 % 1029,5 hPa 0,0 l/m 1,00 h 0,00 h 502 W/m 3,5 km/h (1 Bft) 98,77 %
17.03.2020 16:00 16,6 C 18,8 C 16,5 C 46 % 1029,3 hPa 0,0 l/m 0,97 h 0,00 h 332 W/m 4,1 km/h (1 Bft) 98,79 %
17.03.2020 17:00 15,0 C 13,7 C 12,8 C 47 % 1029,2 hPa 0,0 l/m 0,00 h 0,00 h 39 W/m 3,8 km/h (1 Bft) 94,30 %
17.03.2020 18:00 13,4 C 11,9 C 11,1 C 50 % 1029,1 hPa 0,0 l/m 0,00 h 0,00 h 15 W/m 2,0 km/h (1 Bft) 98,66 %
17.03.2020 19:00 12,1 C 10,5 C 8,5 C 56 % 1029,5 hPa 0,0 l/m 0,00 h 0,00 h 0 W/m 0,0 km/h (0 Bft) 98,02 %
17.03.2020 20:00 11,0 C 9,9 C 7,9 C 59 % 1029,8 hPa 0,0 l/m 0,00 h 0,00 h 0 W/m 0,0 km/h (0 Bft) 96,11 %
17.03.2020 21:00 10,4 C 9,3 C 7,0 C 59 % 1029,7 hPa 0,0 l/m 0,00 h 0,00 h 0 W/m 0,0 km/h (0 Bft) 96,01 %
17.03.2020 22:00 9,8 C 8,7 C 6,2 C 61 % 1029,9 hPa 0,0 l/m 0,00 h 0,00 h 0 W/m 0,0 km/h (0 Bft) 99,00 %
17.03.2020 23:00 8,9 C 7,7 C 6,5 C 66 % 1029,7 hPa 0,0 l/m 0,00 h 0,00 h 0 W/m 0,6 km/h (0 Bft) 94,60 %
18.03.2020 00:00 8,1 C 7,2 C 6,6 C 72 % 1029,3 hPa 0,0 l/m 0,00 h 0,00 h 0 W/m 3,2 km/h (1 Bft) 99,63 %
18.03.2020 01:00 7,7 C 6,8 C 5,9 C 75 % 1028,9 hPa 0,0 l/m 0,00 h 0,00 h 0 W/m 1,2 km/h (1 Bft) 96,87 %
18.03.2020 02:00 7,2 C 6,2 C 5,6 C 77 % 1028,4 hPa 0,0 l/m 0,00 h 0,00 h 0 W/m 0,0 km/h (0 Bft) 95,40 %
18.03.2020 03:00 6,6 C 5,6 C 4,9 C 81 % 1028,2 hPa 0,0 l/m 0,00 h 0,00 h 0 W/m 1,3 km/h (1 Bft) 96,64 %
18.03.2020 04:00 6,3 C 5,6 C 4,5 C 84 % 1028,2 hPa 0,0 l/m 0,00 h 0,00 h 0 W/m 1,5 km/h (1 Bft) 99,29 %
18.03.2020 05:00 6,1 C 5,3 C 4,4 C 86 % 1028,2 hPa 0,0 l/m 0,00 h 0,00 h 0 W/m 1,9 km/h (1 Bft) 95,09 %
18.03.2020 06:00 5,7 C 5,0 C 4,0 C 89 % 1028,2 hPa 0,0 l/m 0,00 h 0,00 h 8 W/m 2,2 km/h (1 Bft) 98,42 %
18.03.2020 07:00 5,8 C 5,5 C 4,8 C 92 % 1028,2 hPa 0,0 l/m 0,00 h 0,00 h 27 W/m 4,2 km/h (1 Bft) 98,42 %
18.03.2020 08:00 7,4 C 8,5 C 7,3 C 95 % 1028,1 hPa 0,0 l/m 0,17 h 0,00 h 97 W/m 2,8 km/h (1 Bft) 97,37 %
18.03.2020 09:00 11,1 C 15,0 C 13,0 C 86 % 1028,2 hPa 0,0 l/m 1,00 h 0,00 h 385 W/m 6,8 km/h (2 Bft) 96,04 %
18.03.2020 10:00 13,9 C 18,4 C 13,2 C 69 % 1028,2 hPa 0,0 l/m 1,00 h 0,00 h 528 W/m 8,6 km/h (2 Bft) 98,29 %
18.03.2020 11:00 16,1 C 20,7 C 14,8 C 60 % 1028,0 hPa 0,0 l/m 1,00 h 0,00 h 645 W/m 12,1 km/h (2 Bft) 99,00 %
18.03.2020 12:00 17,3 C 21,5 C 17,8 C 52 % 1027,6 hPa 0,0 l/m 1,00 h 0,00 h 685 W/m 14,1 km/h (3 Bft) 95,81 %
18.03.2020 13:00 17,9 C 21,8 C 19,9 C 50 % 1027,0 hPa 0,0 l/m 1,00 h 0,00 h 659 W/m 10,1 km/h (2 Bft) 96,93 %
18.03.2020 14:00 18,2 C 21,7 C 17,1 C 51 % 1026,4 hPa 0,0 l/m 1,00 h 0,00 h 572 W/m 8,5 km/h (2 Bft) 98,75 %
18.03.2020 15:00 18,5 C 21,7 C 18,1 C 53 % 1026,0 hPa 0,0 l/m 1,00 h 0,00 h 476 W/m 3,8 km/h (1 Bft) 97,15 %
18.03.2020 16:00 18,4 C 20,0 C 18,2 C 53 % 1025,5 hPa 0,0 l/m 0,97 h 0,00 h 313 W/m 4,5 km/h (1 Bft) 98,58 %
18.03.2020 17:00 17,0 C 15,7 C 14,8 C 56 % 1025,2 hPa 0,0 l/m 0,00 h 0,00 h 47 W/m 4,2 km/h (1 Bft) 96,43 %
18.03.2020 18:00 15,5 C 13,6 C 12,2 C 60 % 1025,2 hPa 0,0 l/m 0,00 h 0,00 h 17 W/m 0,0 km/h (0 Bft) 96,99 %
18.03.2020 19:00 13,5 C 11,4 C 8,8 C 66 % 1025,4 hPa 0,0 l/m 0,00 h 0,00 h 0 W/m 0,0 km/h (0 Bft) 98,29 %
18.03.2020 20:00 11,4 C 8,6 C 7,2 C 73 % 1025,5 hPa 0,0 l/m 0,00 h 0,00 h 0 W/m 0,0 km/h (0 Bft) 98,65 %
18.03.2020 21:00 9,6 C 7,4 C 6,1 C 78 % 1025,7 hPa 0,0 l/m 0,00 h 0,00 h 0 W/m 0,0 km/h (0 Bft) 94,84 %
18.03.2020 22:00 8,2 C 6,4 C 5,3 C 81 % 1025,6 hPa 0,0 l/m 0,00 h 0,00 h 0 W/m 0,0 km/h (0 Bft) 94,57 %
18.03.2020 23:00 7,3 C 5,9 C 4,7 C 85 % 1025,5 hPa 0,0 l/m 0,00 h 0,00 h 0 W/m 0,0 km/h (0 Bft) 98,01 %
19.03.2020 00:00 6,5 C 5,3 C 4,2 C 88 % 1025,5 hPa 0,0 l/m 0,00 h 0,00 h 0 W/m 0,0 km/h (0 Bft) 98,22 %
19.03.2020 01:00 5,8 C 4,3 C 3,5 C 89 % 1025,6 hPa 0,0 l/m 0,00 h 0,00 h 0 W/m 0,0 km/h (0 Bft) 95,48 %
19.03.2020 02:00 5,2 C 4,0 C 3,2 C 90 % 1025,4 hPa 0,0 l/m 0,00 h 0,00 h 0 W/m 0,0 km/h (0 Bft) 97,62 %
19.03.2020 03:00 4,7 C 3,8 C 3,0 C 92 % 1025,2 hPa 0,0 l/m 0,00 h 0,00 h 0 W/m 0,0 km/h (0 Bft) 96,93 %
19.03.2020 04:00 4,8 C 4,2 C 3,2 C 94 % 1025,1 hPa 0,0 l/m 0,00 h 0,00 h 0 W/m 0,0 km/h (0 Bft) 94,31 %
19.03.2020 05:00 4,7 C 3,7 C 3,0 C 94 % 1025,2 hPa 0,0 l/m 0,00 h 0,00 h 0 W/m 0,0 km/h (0 Bft) 99,71 %
19.03.2020 06:00 4,8 C 4,1 C 3,2 C 95 % 1025,2 hPa 0,0 l/m 0,00 h 0,00 h 7 W/m 0,0 km/h (0 Bft) 98,01 %
19.03.2020 07:00 6,1 C 6,8 C 6,1 C 97 % 1025,4 hPa 0,0 l/m 0,00 h 0,00 h 26 W/m 1,3 km/h (1 Bft) 96,52 %
19.03.2020 08:00 7,6 C 8,6 C 8,0 C 98 % 1025,8 hPa 0,0 l/m 0,00 h 0,00 h 82 W/m 0,2 km/h (0 Bft) 97,79 %
19.03.2020 09:00 8,8 C 12,5 C 10,7 C 97 % 1026,1 hPa 0,0 l/m 0,30 h 0,00 h 210 W/m 0,1 km/h (0 Bft) 96,69 %
19.03.2020 10:00 12,6 C 20,2 C 12,0 C 77 % 1026,3 hPa 0,0 l/m 1,00 h 0,00 h 507 W/m 0,7 km/h (0 Bft) 97,66 %
19.03.2020 11:00 15,2 C 20,1 C 14,6 C 66 % 1026,2 hPa 0,0 l/m 0,90 h 0,00 h 480 W/m 1,3 km/h (1 Bft) 98,72 %
19.03.2020 12:00 16,6 C 21,0 C 15,4 C 60 % 1025,8 hPa 0,0 l/m 0,67 h 0,00 h 500 W/m 0,4 km/h (0 Bft) 98,23 %
19.03.2020 13:00 16,9 C 20,2 C 18,1 C 63 % 1025,4 hPa 0,0 l/m 0,50 h 0,00 h 432 W/m 0,8 km/h (0 Bft) 98,15 %
19.03.2020 14:00 18,5 C 23,0 C 17,4 C 61 % 1025,0 hPa 0,0 l/m 0,73 h 0,00 h 505 W/m 2,8 km/h (1 Bft) 96,02 %
19.03.2020 15:00 18,6 C 22,8 C 18,1 C 60 % 1024,5 hPa 0,0 l/m 0,93 h 0,00 h 486 W/m 2,1 km/h (1 Bft) 98,66 %
19.03.2020 16:00 18,3 C 18,3 C 17,3 C 60 % 1024,1 hPa 0,0 l/m 0,40 h 0,00 h 194 W/m 0,0 km/h (0 Bft) 97,74 %
19.03.2020 17:00 16,3 C 14,7 C 14,1 C 68 % 1024,1 hPa 0,0 l/m 0,00 h 0,00 h 36 W/m 0,7 km/h (0 Bft) 97,22 %
19.03.2020 18:00 14,6 C 13,1 C 12,5 C 74 % 1024,2 hPa 0,0 l/m 0,00 h 0,00 h 8 W/m 0,9 km/h (0 Bft) 98,93 %
19.03.2020 19:00 13,5 C 12,0 C 11,7 C 82 % 1024,4 hPa 0,0 l/m 0,00 h 0,00 h 0 W/m 6,2 km/h (2 Bft) 96,37 %
19.03.2020 20:00 12,6 C 11,4 C 10,9 C 86 % 1024,6 hPa 0,0 l/m 0,00 h 0,00 h 0 W/m 1,7 km/h (1 Bft) 96,80 %
19.03.2020 21:00 11,9 C 10,8 C 10,4 C 88 % 1024,6 hPa 0,0 l/m 0,00 h 0,00 h 0 W/m 2,5 km/h (1 Bft) 99,64 %
19.03.2020 22:00 11,3 C 10,2 C 9,9 C 89 % 1024,7 hPa 0,0 l/m 0,00 h 0,00 h 0 W/m 0,0 km/h (0 Bft) 97,37 %
19.03.2020 23:00 10,8 C 9,7 C 9,3 C 89 % 1024,6 hPa 0,0 l/m 0,00 h 0,00 h 0 W/m 0,0 km/h (0 Bft) 96,44 %
20.03.2020 00:00 10,1 C 9,0 C 8,8 C 91 % 1024,4 hPa 0,0 l/m 0,00 h 0,00 h 0 W/m 0,2 km/h (0 Bft) 97,03 %
20.03.2020 01:00 9,6 C 8,5 C 8,3 C 92 % 1024,3 hPa 0,0 l/m 0,00 h 0,00 h 0 W/m 0,0 km/h (0 Bft) 97,65 %
20.03.2020 02:00 9,3 C 8,3 C 8,2 C 93 % 1024,1 hPa 0,0 l/m 0,00 h 0,00 h 0 W/m 0,1 km/h (0 Bft) 98,15 %
20.03.2020 03:00 9,1 C 8,2 C 7,8 C 93 % 1024,0 hPa 0,0 l/m 0,00 h 0,00 h 0 W/m 0,0 km/h (0 Bft) 96,15 %
20.03.2020 04:00 8,8 C 7,8 C 7,8 C 93 % 1024,0 hPa 0,0 l/m 0,00 h 0,00 h 0 W/m 0,0 km/h (0 Bft) 98,36 %
20.03.2020 05:00 8,8 C 8,0 C 7,8 C 93 % 1024,1 hPa 0,0 l/m 0,00 h 0,00 h 0 W/m 0,4 km/h (0 Bft) 97,65 %
20.03.2020 06:00 8,6 C 7,8 C 7,3 C 93 % 1024,2 hPa 0,0 l/m 0,00 h 0,00 h 5 W/m 0,0 km/h (0 Bft) 98,75 %
20.03.2020 07:00 8,4 C 7,8 C 7,6 C 93 % 1024,7 hPa 0,0 l/m 0,00 h 0,00 h 16 W/m 2,6 km/h (1 Bft) 94,56 %
20.03.2020 08:00 8,3 C 7,8 C 7,6 C 93 % 1025,2 hPa 0,0 l/m 0,00 h 0,00 h 36 W/m 1,6 km/h (1 Bft) 96,07 %
20.03.2020 09:00 8,2 C 8,0 C 7,8 C 91 % 1025,5 hPa 0,0 l/m 0,00 h 0,00 h 69 W/m 2,1 km/h (1 Bft) 99,36 %
20.03.2020 10:00 8,7 C 9,1 C 8,8 C 89 % 1025,7 hPa 0,0 l/m 0,00 h 0,00 h 119 W/m 2,7 km/h (1 Bft) 97,15 %
20.03.2020 11:00 8,9 C 8,6 C 8,4 C 87 % 1025,7 hPa 0,0 l/m 0,00 h 0,00 h 88 W/m 0,9 km/h (0 Bft) 95,94 %
20.03.2020 12:00 8,8 C 8,9 C 8,5 C 87 % 1025,7 hPa 0,0 l/m 0,00 h 0,00 h 115 W/m 1,4 km/h (1 Bft) 97,51 %
20.03.2020 13:00 9,1 C 9,0 C 8,9 C 87 % 1025,7 hPa 0,0 l/m 0,00 h 0,00 h 105 W/m 1,2 km/h (1 Bft) 97,93 %
20.03.2020 14:00 9,0 C 8,8 C 8,7 C 87 % 1025,8 hPa 0,0 l/m 0,00 h 0,00 h 102 W/m 7,2 km/h (2 Bft) 96,08 %
20.03.2020 15:00 8,8 C 8,4 C 8,2 C 85 % 1025,6 hPa 0,0 l/m 0,00 h 0,00 h 83 W/m 8,6 km/h (2 Bft) 97,94 %
20.03.2020 16:00 8,5 C 7,8 C 7,5 C 84 % 1025,6 hPa 0,0 l/m 0,00 h 0,00 h 27 W/m 6,3 km/h (2 Bft) 98,65 %
20.03.2020 17:00 8,1 C 7,4 C 7,1 C 82 % 1025,7 hPa 0,0 l/m 0,00 h 0,00 h 17 W/m 7,1 km/h (2 Bft) 96,51 %
20.03.2020 18:00 7,5 C 6,5 C 6,3 C 78 % 1026,3 hPa 0,0 l/m 0,00 h 0,00 h 6 W/m 9,2 km/h (2 Bft) 97,05 %
20.03.2020 19:00 6,7 C 5,6 C 5,4 C 84 % 1026,7 hPa 0,0 l/m 0,00 h 0,17 h 0 W/m 5,5 km/h (1 Bft) 96,59 %
20.03.2020 20:00 5,9 C 4,4 C 4,1 C 88 % 1027,1 hPa 0,2 l/m 0,00 h 0,87 h 0 W/m 9,7 km/h (2 Bft) 97,46 %
20.03.2020 21:00 5,3 C 3,8 C 3,4 C 91 % 1027,3 hPa 0,6 l/m 0,00 h 1,00 h 0 W/m 12,4 km/h (3 Bft) 97,44 %
20.03.2020 22:00 4,8 C 3,3 C 3,3 C 92 % 1027,6 hPa 0,4 l/m 0,00 h 1,00 h 0 W/m 18,7 km/h (3 Bft) 93,54 %
20.03.2020 23:00 4,8 C 3,3 C 3,2 C 93 % 1027,9 hPa 0,2 l/m 0,00 h 0,70 h 0 W/m 11,1 km/h (2 Bft) 97,94 %
21.03.2020 00:00 4,8 C 3,7 C 3,3 C 93 % 1027,8 hPa 0,0 l/m 0,00 h 0,43 h 0 W/m 10,5 km/h (2 Bft) 96,97 %
21.03.2020 01:00 4,8 C 3,5 C 2,9 C 92 % 1027,7 hPa 0,4 l/m 0,00 h 0,57 h 0 W/m 11,5 km/h (2 Bft) 96,78 %
21.03.2020 02:00 4,7 C 3,7 C 2,9 C 91 % 1027,3 hPa 0,0 l/m 0,00 h 0,00 h 0 W/m 1,3 km/h (1 Bft) 96,87 %
21.03.2020 03:00 4,7 C 3,9 C 3,3 C 93 % 1027,2 hPa 0,0 l/m 0,00 h 0,00 h 0 W/m 8,2 km/h (2 Bft) 98,08 %
21.03.2020 04:00 4,5 C 3,7 C 2,7 C 92 % 1027,3 hPa 0,0 l/m 0,00 h 0,00 h 0 W/m 12,2 km/h (2 Bft) 98,28 %
21.03.2020 05:00 4,1 C 3,3 C 2,2 C 92 % 1027,4 hPa 0,0 l/m 0,00 h 0,00 h 0 W/m 16,1 km/h (3 Bft) 97,51 %
21.03.2020 06:00 3,5 C 2,6 C 1,7 C 91 % 1027,8 hPa 0,0 l/m 0,00 h 0,00 h 9 W/m 10,2 km/h (2 Bft) 96,47 %
21.03.2020 07:00 2,8 C 2,2 C 1,1 C 91 % 1027,9 hPa 0,0 l/m 0,00 h 0,00 h 25 W/m 11,1 km/h (2 Bft) 97,72 %
21.03.2020 08:00 2,9 C 3,7 C 1,5 C 89 % 1027,8 hPa 0,0 l/m 0,27 h 0,00 h 116 W/m 13,2 km/h (3 Bft) 97,49 %
21.03.2020 09:00 5,2 C 10,4 C 8,9 C 84 % 1027,7 hPa 0,0 l/m 1,00 h 0,00 h 446 W/m 12,4 km/h (3 Bft) 97,14 %
21.03.2020 10:00 7,3 C 12,0 C 6,2 C 77 % 1027,6 hPa 0,0 l/m 1,00 h 0,00 h 594 W/m 14,2 km/h (3 Bft) 98,79 %
21.03.2020 11:00 8,3 C 13,1 C 7,5 C 72 % 1027,4 hPa 0,0 l/m 1,00 h 0,00 h 701 W/m 15,8 km/h (3 Bft) 96,51 %
21.03.2020 12:00 9,5 C 13,4 C 10,1 C 68 % 1027,1 hPa 0,0 l/m 0,93 h 0,00 h 701 W/m 16,6 km/h (3 Bft) 98,67 %
21.03.2020 13:00 10,4 C 15,1 C 13,6 C 63 % 1026,9 hPa 0,0 l/m 1,00 h 0,00 h 749 W/m 11,6 km/h (2 Bft) 96,73 %
21.03.2020 14:00 10,9 C 14,3 C 11,0 C 59 % 1026,6 hPa 0,0 l/m 1,00 h 0,00 h 656 W/m 19,9 km/h (4 Bft) 96,94 %
21.03.2020 15:00 10,6 C 13,6 C 10,8 C 59 % 1026,4 hPa 0,0 l/m 1,00 h 0,00 h 519 W/m 21,7 km/h (4 Bft) 99,79 %
21.03.2020 16:00 9,8 C 11,9 C 10,5 C 58 % 1026,2 hPa 0,0 l/m 0,97 h 0,00 h 352 W/m 21,2 km/h (4 Bft) 95,18 %
21.03.2020 17:00 8,2 C 7,4 C 6,7 C 60 % 1026,3 hPa 0,0 l/m 0,00 h 0,00 h 38 W/m 19,4 km/h (3 Bft) 96,66 %
21.03.2020 18:00 7,0 C 6,0 C 5,3 C 63 % 1026,5 hPa 0,0 l/m 0,00 h 0,00 h 15 W/m 15,5 km/h (3 Bft) 98,27 %
21.03.2020 19:00 5,8 C 4,7 C 4,1 C 66 % 1027,1 hPa 0,0 l/m 0,00 h 0,00 h 0 W/m 11,7 km/h (2 Bft) 98,36 %
21.03.2020 20:00 4,9 C 3,7 C 3,1 C 69 % 1027,8 hPa 0,0 l/m 0,00 h 0,00 h 0 W/m 9,7 km/h (2 Bft) 96,72 %
21.03.2020 21:00 4,1 C 3,3 C 2,6 C 69 % 1028,2 hPa 0,0 l/m 0,00 h 0,00 h 0 W/m 8,0 km/h (2 Bft) 96,20 %
21.03.2020 22:00 3,6 C 2,7 C 2,0 C 68 % 1028,7 hPa 0,0 l/m 0,00 h 0,00 h 0 W/m 7,6 km/h (2 Bft) 96,87 %
21.03.2020 23:00 2,8 C 1,7 C 1,1 C 71 % 1029,0 hPa 0,0 l/m 0,00 h 0,00 h 0 W/m 5,1 km/h (1 Bft) 97,30 %
22.03.2020 00:00 2,0 C 0,5 C 0,1 C 73 % 1029,1 hPa 0,0 l/m 0,00 h 0,00 h 0 W/m 3,4 km/h (1 Bft) 97,65 %
22.03.2020 01:00 0,8 C -0,6 C -1,0 C 78 % 1029,3 hPa 0,0 l/m 0,00 h 0,00 h 0 W/m 0,0 km/h (0 Bft) 96,15 %
22.03.2020 02:00 0,3 C -0,8 C -1,1 C 82 % 1029,2 hPa 0,0 l/m 0,00 h 0,00 h 0 W/m 4,6 km/h (1 Bft) 93,81 %
22.03.2020 03:00 -0,0 C -1,1 C -1,2 C 84 % 1029,1 hPa 0,0 l/m 0,00 h 0,00 h 0 W/m 5,0 km/h (1 Bft) 96,36 %
22.03.2020 04:00 -0,3 C -1,1 C -1,7 C 85 % 1028,9 hPa 0,0 l/m 0,00 h 0,00 h 0 W/m 2,4 km/h (1 Bft) 94,91 %
22.03.2020 05:00 -0,6 C -1,7 C -1,9 C 85 % 1029,2 hPa 0,0 l/m 0,00 h 0,00 h 0 W/m 0,6 km/h (0 Bft) 94,95 %
22.03.2020 06:00 -0,7 C -1,6 C -1,9 C 85 % 1029,7 hPa 0,0 l/m 0,00 h 0,00 h 9 W/m 3,0 km/h (1 Bft) 97,17 %
22.03.2020 07:00 -0,5 C -0,8 C -1,4 C 84 % 1030,2 hPa 0,0 l/m 0,00 h 0,00 h 22 W/m 7,3 km/h (2 Bft) 97,01 %
22.03.2020 08:00 0,7 C 2,3 C 0,2 C 81 % 1030,6 hPa 0,0 l/m 0,27 h 0,00 h 128 W/m 4,9 km/h (1 Bft) 96,87 %
22.03.2020 09:00 4,1 C 10,5 C 8,8 C 71 % 1031,0 hPa 0,0 l/m 1,00 h 0,00 h 468 W/m 0,8 km/h (0 Bft) 97,87 %
22.03.2020 10:00 7,0 C 12,8 C 5,8 C 58 % 1030,9 hPa 0,0 l/m 1,00 h 0,00 h 609 W/m 1,2 km/h (1 Bft) 98,86 %
22.03.2020 11:00 8,8 C 13,9 C 7,8 C 48 % 1030,7 hPa 0,0 l/m 1,00 h 0,00 h 705 W/m 12,6 km/h (3 Bft) 93,34 %
22.03.2020 12:00 10,4 C 15,4 C 12,2 C 43 % 1030,4 hPa 0,0 l/m 1,00 h 0,00 h 747 W/m 5,0 km/h (1 Bft) 97,80 %
22.03.2020 13:00 11,6 C 16,3 C 15,2 C 40 % 1030,1 hPa 0,0 l/m 1,00 h 0,00 h 733 W/m 4,9 km/h (1 Bft) 99,29 %
22.03.2020 14:00 12,1 C 16,2 C 12,4 C 41 % 1029,7 hPa 0,0 l/m 1,00 h 0,00 h 663 W/m 3,6 km/h (1 Bft) 96,73 %
22.03.2020 15:00 12,5 C 16,1 C 12,4 C 47 % 1029,5 hPa 0,0 l/m 1,00 h 0,00 h 542 W/m 3,8 km/h (1 Bft) 97,76 %
22.03.2020 16:00 11,6 C 13,7 C 12,4 C 49 % 1029,4 hPa 0,0 l/m 0,93 h 0,00 h 367 W/m 1,7 km/h (1 Bft) 97,50 %
22.03.2020 17:00 9,6 C 8,6 C 7,7 C 54 % 1029,6 hPa 0,0 l/m 0,00 h 0,00 h 34 W/m 2,2 km/h (1 Bft) 96,80 %
22.03.2020 18:00 8,7 C 7,7 C 6,9 C 50 % 1030,2 hPa 0,0 l/m 0,00 h 0,00 h 14 W/m 2,5 km/h (1 Bft) 98,93 %
22.03.2020 19:00 7,6 C 6,4 C 5,7 C 48 % 1031,1 hPa 0,0 l/m 0,00 h 0,00 h 0 W/m 11,7 km/h (2 Bft) 98,44 %
22.03.2020 20:00 6,5 C 5,6 C 4,8 C 48 % 1031,7 hPa 0,0 l/m 0,00 h 0,00 h 0 W/m 18,0 km/h (3 Bft) 93,45 %
22.03.2020 21:00 5,4 C 4,4 C 3,7 C 50 % 1032,3 hPa 0,0 l/m 0,00 h 0,00 h 0 W/m 16,4 km/h (3 Bft) 98,43 %
22.03.2020 22:00 4,4 C 3,4 C 2,9 C 53 % 1032,8 hPa 0,0 l/m 0,00 h 0,00 h 0 W/m 13,3 km/h (3 Bft) 96,18 %
22.03.2020 23:00 3,8 C 2,9 C 2,3 C 55 % 1032,9 hPa 0,0 l/m 0,00 h 0,00 h 0 W/m 15,0 km/h (3 Bft) 97,44 %
Min-Datum _ 22.03.20 22.03.20 22.03.20 22.03.20 16.03.20 - - - - 16.03.20 20.03.20
_ Min-Zeit 05:38 05:00 05:28 14:14 00:00 - - - - 00:00 07:08
Minimum _ -0,7 C -1,7 C -2,2 C 37 % 1013,4 hPa - - - - 0,0 km/h (0 Bft) 28,57 %
Max-Datum _ 19.03.20 19.03.20 16.03.20 19.03.20 22.03.20 20.03.20 16.03.20 21.03.20 21.03.20 21.03.20 16.03.20
_ Max-Zeit 14:42 14:12 13:18 08:14 23:06 21:20 13:09 00:08 12:44 15:50 00:00
Maximum _ 18,9 C 26,7 C 23,3 C 98 % 1033,0 hPa 0,6 l/m 0,08 h 0,07 h 861 W/m 38,6 km/h
N (5 Bft)
100,00 %
Durchschnitt _ 9,1 C 9,6 C 8,0 C 76 % 1026,3 hPa #1,8 l/m #45:16 h #4:44 h 298 W/m 4,5 km/h (1 Bft) 97,20 %
© 2020 W. Hausmann